createdAt,value
2023-01-21T07:42:01.253Z,14.45
2023-01-21T07:44:28.065Z,13.95
2023-01-21T07:46:54.707Z,11.65
2023-01-21T07:49:21.364Z,16.65
2023-01-21T07:51:48.549Z,13.15
2023-01-21T07:54:15.670Z,12.52
2023-01-21T07:56:42.532Z,11.10
2023-01-21T07:59:10.830Z,14.30
2023-01-21T08:01:37.560Z,14.10
2023-01-21T08:04:04.687Z,11.82
2023-01-21T08:06:31.369Z,10.38
2023-01-21T08:08:58.075Z,15.07
2023-01-21T08:11:25.069Z,12.73
2023-01-21T08:13:51.779Z,13.38
2023-01-21T08:16:18.567Z,13.48
2023-01-21T08:18:45.248Z,13.38
2023-01-21T08:21:11.952Z,13.23
2023-01-21T08:23:38.701Z,11.85
2023-01-21T08:26:06.628Z,11.63
2023-01-21T08:28:34.162Z,10.13
2023-01-21T08:31:06.772Z,11.90
2023-01-21T08:33:33.795Z,12.20
2023-01-21T08:36:01.987Z,14.60
2023-01-21T08:38:29.064Z,14.75
2023-01-21T08:40:58.316Z,12.50
2023-01-21T08:43:26.112Z,11.10
2023-01-21T08:45:56.182Z,12.38
2023-01-21T08:48:23.091Z,11.57
2023-01-21T08:50:49.808Z,13.07
2023-01-21T08:53:16.484Z,11.70
2023-01-21T08:55:43.232Z,11.68
2023-01-21T08:58:09.873Z,11.27
2023-01-21T09:00:36.594Z,16.45
2023-01-21T09:03:03.398Z,13.90
2023-01-21T09:05:30.089Z,19.55
2023-01-21T09:07:58.162Z,15.52
2023-01-21T09:10:44.014Z,16.77
2023-01-21T09:13:10.942Z,20.88
2023-01-21T09:15:40.730Z,20.02
2023-01-21T09:18:07.737Z,16.88
2023-01-21T09:20:34.503Z,11.77
2023-01-21T09:23:01.202Z,13.80
2023-01-21T09:25:28.016Z,7.25
2023-01-21T09:27:54.659Z,8.75
2023-01-21T09:30:21.453Z,9.88
2023-01-21T09:32:48.183Z,6.93
2023-01-21T09:35:15.216Z,8.73
2023-01-21T09:37:42.127Z,9.27
2023-01-21T09:40:16.206Z,5.55
2023-01-21T09:42:43.194Z,6.70
2023-01-21T09:45:15.213Z,7.43
2023-01-21T09:47:45.097Z,7.60
2023-01-21T09:50:14.255Z,11.10
2023-01-21T09:52:45.637Z,10.90
2023-01-21T09:55:18.863Z,11.93
2023-01-21T09:58:06.656Z,10.25
2023-01-21T10:00:57.659Z,9.77
2023-01-21T10:03:32.873Z,8.02
2023-01-21T10:06:14.773Z,12.13
2023-01-21T10:08:56.415Z,9.10
2023-01-21T10:11:53.874Z,6.90
2023-01-21T10:14:51.448Z,5.05
2023-01-21T10:17:56.533Z,5.80
2023-01-21T10:20:38.656Z,4.45
2023-01-21T10:23:26.460Z,3.85
2023-01-21T10:25:53.247Z,4.93
2023-01-21T10:28:23.477Z,5.13
2023-01-21T10:30:52.972Z,4.05
2023-01-21T10:33:26.019Z,4.43
2023-01-21T10:36:26.202Z,5.40
2023-01-21T10:39:15.345Z,6.97
2023-01-21T10:42:10.869Z,6.63
2023-01-21T10:44:59.724Z,6.32
2023-01-21T10:47:29.184Z,4.07
2023-01-21T10:50:36.683Z,8.88
2023-01-21T10:53:25.263Z,8.38
2023-01-21T10:56:30.052Z,7.72
2023-01-21T10:59:06.104Z,7.53
2023-01-21T11:01:37.267Z,6.72
2023-01-21T11:04:37.072Z,6.28
2023-01-21T11:07:07.284Z,8.45
2023-01-21T11:09:46.808Z,12.02
2023-01-21T11:12:18.472Z,11.18
2023-01-21T11:14:55.172Z,7.55
2023-01-21T11:17:34.629Z,6.43
2023-01-21T11:20:04.353Z,8.15
2023-01-21T11:22:32.464Z,9.65
2023-01-21T11:25:00.313Z,8.30
2023-01-21T11:27:34.913Z,8.93
2023-01-21T11:30:02.345Z,11.02
2023-01-21T11:32:30.897Z,11.23
2023-01-21T11:35:10.582Z,11.55
2023-01-21T11:37:38.267Z,10.75
2023-01-21T11:40:22.979Z,11.20
2023-01-21T11:42:52.274Z,13.68
2023-01-21T11:45:31.954Z,15.33
2023-01-21T11:48:00.365Z,10.98
2023-01-21T11:50:35.218Z,14.02
2023-01-21T11:53:11.509Z,17.40
2023-01-21T11:55:51.091Z,11.88
2023-01-21T11:58:30.225Z,12.15
2023-01-21T12:01:02.985Z,12.80
2023-01-21T12:03:42.353Z,13.93
2023-01-21T12:06:16.700Z,17.60
2023-01-21T12:08:45.190Z,13.98
2023-01-21T12:11:23.048Z,14.13
2023-01-21T12:14:03.398Z,12.77
2023-01-21T12:17:11.123Z,14.70
2023-01-21T12:20:18.149Z,12.60
2023-01-21T12:23:20.205Z,11.55
2023-01-21T12:26:11.764Z,13.75
2023-01-21T12:28:57.745Z,14.65
2023-01-21T12:31:37.348Z,13.00
2023-01-21T12:34:19.506Z,20.73
2023-01-21T12:37:09.537Z,20.40
2023-01-21T12:39:41.943Z,20.85
2023-01-21T12:42:23.011Z,23.98
2023-01-21T12:44:55.741Z,22.40
2023-01-21T12:47:25.549Z,24.20
2023-01-21T12:50:28.426Z,26.42
2023-01-21T12:53:26.797Z,22.67
2023-01-21T12:56:09.766Z,26.27
2023-01-21T12:58:45.160Z,19.80
2023-01-21T13:01:22.517Z,23.00
2023-01-21T13:04:33.311Z,24.35
2023-01-21T13:07:18.491Z,27.35
2023-01-21T13:09:58.830Z,25.98
2023-01-21T13:12:27.575Z,22.27
2023-01-21T13:15:20.989Z,23.80
2023-01-21T13:17:55.405Z,24.23
2023-01-21T13:20:22.963Z,23.73
2023-01-21T13:22:55.980Z,20.27
2023-01-21T13:25:40.488Z,23.95
2023-01-21T13:28:15.269Z,19.23
2023-01-21T13:30:49.241Z,22.70
2023-01-21T13:33:41.718Z,18.55
2023-01-21T13:36:26.437Z,24.42
2023-01-21T13:39:11.783Z,21.25
2023-01-21T13:42:10.022Z,19.05
2023-01-21T13:44:56.550Z,19.92
2023-01-21T13:47:38.942Z,24.67
2023-01-21T13:50:21.533Z,16.55
2023-01-21T13:53:15.216Z,19.58
2023-01-21T13:55:56.769Z,21.15
2023-01-21T13:58:36.090Z,20.58
2023-01-21T14:01:17.323Z,22.92
2023-01-21T14:03:55.504Z,23.02
2023-01-21T14:06:50.067Z,28.27
2023-01-21T14:09:26.794Z,21.67
2023-01-21T14:12:02.695Z,22.02
2023-01-21T14:14:49.855Z,24.17
2023-01-21T14:17:31.559Z,22.13
2023-01-21T14:20:29.139Z,22.25
2023-01-21T14:23:22.373Z,26.08
2023-01-21T14:26:13.751Z,18.27
2023-01-21T14:28:53.478Z,18.50
2023-01-21T14:31:30.649Z,21.00
2023-01-21T14:34:26.768Z,22.77
2023-01-21T14:37:06.044Z,24.52
2023-01-21T14:39:52.970Z,27.87
2023-01-21T14:42:26.331Z,20.23
2023-01-21T14:44:53.672Z,22.40
2023-01-21T14:47:24.507Z,22.42
2023-01-21T14:49:53.552Z,21.25
2023-01-21T14:52:27.281Z,28.00
2023-01-21T14:54:54.007Z,22.75
2023-01-21T14:57:28.855Z,22.35
2023-01-21T15:00:03.063Z,20.02
2023-01-21T15:02:37.209Z,23.83
2023-01-21T15:05:24.531Z,24.95
2023-01-21T15:08:09.027Z,27.92
2023-01-21T15:10:38.430Z,18.75
2023-01-21T15:13:21.289Z,27.60
2023-01-21T15:16:15.355Z,23.23
2023-01-21T15:19:04.996Z,23.55
2023-01-21T15:21:40.482Z,26.50
2023-01-21T15:24:24.530Z,25.92
2023-01-21T15:27:13.371Z,24.48
2023-01-21T15:29:53.377Z,29.83
2023-01-21T15:35:20.374Z,28.65
2023-01-21T15:37:51.581Z,24.20
2023-01-21T15:40:35.754Z,25.83
2023-01-21T15:43:25.885Z,27.23
2023-01-21T15:48:50.684Z,24.98
2023-01-21T15:51:38.534Z,28.08
2023-01-21T15:54:17.002Z,26.40
2023-01-21T15:56:49.003Z,27.02
2023-01-21T15:59:35.361Z,33.13
2023-01-21T16:02:19.001Z,33.83
2023-01-21T16:05:04.718Z,27.42
2023-01-21T16:07:58.079Z,30.38
2023-01-21T16:10:46.622Z,29.83
2023-01-21T16:13:44.659Z,30.55
2023-01-21T16:16:33.780Z,27.38
2023-01-21T16:19:08.200Z,32.28
2023-01-21T16:21:37.063Z,29.70
2023-01-21T16:24:09.925Z,25.27
2023-01-21T16:26:36.912Z,30.98
2023-01-21T16:29:13.272Z,38.40
2023-01-21T16:31:59.488Z,31.63
2023-01-21T16:34:43.399Z,34.28
2023-01-21T16:37:22.495Z,32.35
2023-01-21T16:39:52.677Z,32.42
2023-01-21T16:44:55.715Z,38.05
2023-01-21T16:47:33.491Z,32.55
2023-01-21T16:50:01.791Z,30.63
2023-01-21T16:52:28.609Z,35.53
2023-01-21T16:54:55.787Z,37.65
2023-01-21T16:57:31.592Z,31.50
2023-01-21T17:00:02.108Z,35.45
2023-01-21T17:02:33.830Z,31.92
2023-01-21T17:05:05.118Z,35.20
2023-01-21T17:07:43.559Z,33.72
2023-01-21T17:10:26.919Z,29.52
2023-01-21T17:13:05.625Z,33.08
2023-01-21T17:15:43.517Z,25.33
2023-01-21T17:18:27.441Z,33.38
2023-01-21T17:21:20.226Z,33.33
2023-01-21T17:23:48.092Z,30.50
2023-01-21T17:26:22.442Z,30.95
2023-01-21T17:28:57.696Z,36.92
2023-01-21T17:31:36.047Z,32.88
2023-01-21T17:34:10.478Z,24.88
2023-01-21T17:36:39.075Z,34.92
2023-01-21T17:39:07.398Z,33.72
2023-01-21T17:41:37.710Z,33.10
2023-01-21T17:44:15.353Z,35.67
2023-01-21T17:46:50.183Z,31.00
2023-01-21T17:49:19.586Z,30.50
2023-01-21T17:51:46.821Z,34.35
2023-01-21T17:54:22.405Z,29.17
2023-01-21T17:56:51.992Z,30.50
2023-01-21T17:59:38.142Z,29.60
2023-01-21T18:02:09.799Z,27.83
2023-01-21T18:04:36.496Z,26.77
2023-01-21T18:07:06.352Z,29.35
2023-01-21T18:09:35.068Z,29.80
2023-01-21T18:12:01.721Z,31.30
2023-01-21T18:14:28.817Z,29.30
2023-01-21T18:16:55.745Z,27.02
2023-01-21T18:19:29.581Z,34.40
2023-01-21T18:21:57.084Z,34.25
2023-01-21T18:24:24.391Z,33.38
2023-01-21T18:26:51.689Z,27.05
2023-01-21T18:29:19.456Z,38.05
2023-01-21T18:31:48.691Z,31.35
2023-01-21T18:34:15.379Z,32.78
2023-01-21T18:36:42.327Z,27.08
2023-01-21T18:39:14.317Z,27.52
2023-01-21T18:41:41.502Z,28.58
2023-01-21T18:44:08.716Z,25.98
2023-01-21T18:46:41.429Z,36.53
2023-01-21T18:49:16.746Z,31.40
2023-01-21T18:51:43.743Z,32.42
2023-01-21T18:54:12.765Z,26.55
2023-01-21T18:56:40.279Z,29.60
2023-01-21T18:59:17.144Z,32.78
2023-01-21T19:01:44.837Z,30.48
2023-01-21T19:04:15.723Z,26.65
2023-01-21T19:06:42.835Z,31.25
2023-01-21T19:09:17.730Z,20.35
2023-01-21T19:11:44.472Z,29.30
2023-01-21T19:14:11.109Z,29.52
2023-01-21T19:16:38.786Z,29.88
2023-01-21T19:19:16.757Z,27.13
2023-01-21T19:21:43.510Z,28.83
2023-01-21T19:24:12.223Z,26.35
2023-01-21T19:26:39.260Z,30.98
2023-01-21T19:29:13.919Z,28.85
2023-01-21T19:31:40.930Z,37.10
2023-01-21T19:34:09.000Z,35.95
2023-01-21T19:36:35.723Z,25.27
2023-01-21T19:39:02.416Z,25.05
2023-01-21T19:41:29.182Z,26.83
2023-01-21T19:43:55.827Z,27.48
2023-01-21T19:46:23.865Z,28.45
2023-01-21T19:48:53.388Z,28.15
2023-01-21T19:51:20.197Z,27.25
2023-01-21T19:53:46.944Z,25.70
2023-01-21T19:56:19.345Z,26.95
2023-01-21T19:58:46.096Z,27.60
2023-01-21T20:01:12.784Z,34.58
2023-01-21T20:03:48.111Z,26.58
2023-01-21T20:06:23.272Z,29.58
2023-01-21T20:08:50.657Z,29.38
2023-01-21T20:11:17.960Z,28.60
2023-01-21T20:13:44.633Z,28.98
2023-01-21T20:16:16.751Z,29.42
2023-01-21T20:18:46.128Z,28.95
2023-01-21T20:21:12.876Z,28.15
2023-01-21T20:23:39.671Z,30.67
2023-01-21T20:26:10.882Z,30.60
2023-01-21T20:28:43.294Z,30.00
2023-01-21T20:31:10.975Z,28.55
2023-01-21T20:33:38.000Z,29.77
2023-01-21T20:36:06.748Z,24.70
2023-01-21T20:38:36.042Z,23.17
2023-01-21T20:41:04.345Z,25.50
2023-01-21T20:43:31.325Z,27.70
2023-01-21T20:46:01.799Z,29.27
2023-01-21T20:48:30.103Z,29.90
2023-01-21T20:50:56.837Z,28.38
2023-01-21T20:53:23.567Z,26.85
2023-01-21T20:55:51.814Z,24.13
2023-01-21T20:58:22.129Z,26.25
2023-01-21T21:00:49.331Z,28.52
2023-01-21T21:03:17.983Z,30.05
2023-01-21T21:05:46.014Z,25.58
2023-01-21T21:08:15.635Z,25.40
2023-01-21T21:10:42.704Z,23.48
2023-01-21T21:13:10.427Z,25.27
2023-01-21T21:15:37.997Z,29.27
2023-01-21T21:18:05.575Z,25.20
2023-01-21T21:20:38.755Z,27.45
2023-01-21T21:23:07.462Z,28.05
2023-01-21T21:25:41.919Z,24.55
2023-01-21T21:28:11.002Z,29.08
2023-01-21T21:30:37.830Z,24.35
2023-01-21T21:33:04.517Z,26.98
2023-01-21T21:35:33.842Z,29.90
2023-01-21T21:38:04.185Z,26.80
2023-01-21T21:40:30.964Z,25.33
2023-01-21T21:43:16.991Z,25.08
2023-01-21T21:46:02.862Z,27.52
2023-01-21T21:48:39.349Z,27.38
2023-01-21T21:51:14.408Z,25.55
2023-01-21T21:53:41.559Z,29.27
2023-01-21T21:56:19.965Z,24.90
2023-01-21T21:58:47.484Z,27.45
2023-01-21T22:01:15.948Z,24.88
2023-01-21T22:03:43.411Z,27.33
2023-01-21T22:06:11.705Z,25.92
2023-01-21T22:08:40.333Z,25.13
2023-01-21T22:11:09.464Z,27.80
2023-01-21T22:13:40.095Z,24.87
2023-01-21T22:16:09.805Z,22.67
2023-01-21T22:18:36.488Z,32.13
2023-01-21T22:21:06.226Z,26.30
2023-01-21T22:23:35.330Z,24.83
2023-01-21T22:26:03.738Z,26.57
2023-01-21T22:28:30.449Z,25.20
2023-01-21T22:31:07.559Z,23.83
2023-01-21T22:33:35.711Z,25.85
2023-01-21T22:36:03.370Z,24.38
2023-01-21T22:38:30.141Z,27.60
2023-01-21T22:40:56.998Z,23.05
2023-01-21T22:43:24.309Z,24.75
2023-01-21T22:45:51.902Z,24.52
2023-01-21T22:48:18.599Z,24.77
2023-01-21T22:50:45.724Z,22.38
2023-01-21T22:53:13.300Z,24.20
2023-01-21T22:55:40.223Z,24.85
2023-01-21T22:58:07.056Z,23.98
2023-01-21T23:00:41.100Z,27.23
2023-01-21T23:03:09.501Z,23.90
2023-01-21T23:05:36.434Z,20.70
2023-01-21T23:08:03.341Z,24.15
2023-01-21T23:10:30.085Z,23.15
2023-01-21T23:12:56.770Z,21.63
2023-01-21T23:15:23.984Z,22.00
2023-01-21T23:17:52.853Z,23.60
2023-01-21T23:20:20.828Z,22.25
2023-01-21T23:22:47.745Z,23.10
2023-01-21T23:25:15.076Z,22.77
2023-01-21T23:27:41.838Z,21.83
2023-01-21T23:30:09.769Z,22.38
2023-01-21T23:32:36.454Z,26.17
2023-01-21T23:35:03.151Z,21.10
2023-01-21T23:37:29.893Z,22.40
2023-01-21T23:39:56.526Z,22.27
2023-01-21T23:42:23.765Z,22.58
2023-01-21T23:44:50.781Z,21.80
2023-01-21T23:47:18.058Z,22.58
2023-01-21T23:49:44.803Z,19.20
2023-01-21T23:52:12.484Z,25.13
2023-01-21T23:54:46.060Z,22.70
2023-01-21T23:57:12.822Z,21.27
2023-01-21T23:59:39.556Z,23.13
